createdAt,value
2022-08-29T00:00:01.112Z,63.90
2022-08-29T00:05:04.187Z,63.80
2022-08-29T00:10:09.534Z,64.40
2022-08-29T00:15:13.824Z,64.90
2022-08-29T00:20:20.482Z,64.90
2022-08-29T00:25:27.209Z,66.30
2022-08-29T00:30:29.742Z,65.50
2022-08-29T00:35:34.525Z,65.50
2022-08-29T00:40:42.487Z,66.00
2022-08-29T00:46:03.858Z,66.70
2022-08-29T00:51:20.175Z,67.30
2022-08-29T00:56:25.952Z,66.90
2022-08-29T01:01:28.421Z,67.00
2022-08-29T01:06:32.279Z,66.70
2022-08-29T01:11:36.924Z,67.00
2022-08-29T01:16:40.429Z,67.40
2022-08-29T01:21:50.416Z,67.40
2022-08-29T01:26:54.762Z,68.00
2022-08-29T01:31:58.085Z,67.90
2022-08-29T01:37:03.147Z,67.90
2022-08-29T01:42:09.716Z,68.20
2022-08-29T01:47:12.173Z,68.70
2022-08-29T01:52:17.685Z,68.30
2022-08-29T01:57:21.561Z,68.70
2022-08-29T02:02:27.744Z,69.10
2022-08-29T02:07:30.154Z,69.30
2022-08-29T02:12:35.388Z,68.90
2022-08-29T02:17:37.883Z,69.50
2022-08-29T02:22:41.400Z,69.40
2022-08-29T02:27:45.134Z,69.50
2022-08-29T02:32:47.572Z,69.70
2022-08-29T02:37:49.922Z,69.50
2022-08-29T02:42:53.886Z,69.80
2022-08-29T02:47:56.262Z,70.40
2022-08-29T02:52:58.939Z,70.30
2022-08-29T02:58:02.774Z,70.40
2022-08-29T03:03:05.215Z,70.80
2022-08-29T03:08:10.178Z,70.80
2022-08-29T03:13:14.220Z,71.10
2022-08-29T03:18:16.875Z,71.30
2022-08-29T03:23:19.329Z,71.30
2022-08-29T03:28:23.464Z,71.40
2022-08-29T03:33:25.830Z,71.70
2022-08-29T03:38:28.256Z,71.50
2022-08-29T03:43:32.099Z,71.50
2022-08-29T03:48:34.538Z,71.60
2022-08-29T03:53:37.318Z,71.60
2022-08-29T03:58:41.244Z,71.60
2022-08-29T04:03:43.604Z,72.00
2022-08-29T04:08:47.030Z,71.80
2022-08-29T04:13:52.489Z,72.10
2022-08-29T04:18:54.878Z,72.40
2022-08-29T04:23:57.343Z,72.20
2022-08-29T04:29:01.393Z,72.20
2022-08-29T04:34:04.997Z,72.60
2022-08-29T04:39:08.141Z,72.80
2022-08-29T04:44:13.103Z,72.80
2022-08-29T04:49:15.821Z,73.30
2022-08-29T04:54:18.277Z,73.10
2022-08-29T04:59:22.125Z,73.20
2022-08-29T05:04:24.534Z,73.70
2022-08-29T05:09:27.138Z,73.80
2022-08-29T05:14:31.220Z,73.80
2022-08-29T05:19:34.229Z,74.20
2022-08-29T05:24:37.508Z,74.00
2022-08-29T05:29:43.850Z,74.30
2022-08-29T05:34:47.944Z,74.70
2022-08-29T05:39:51.183Z,74.70
2022-08-29T05:44:55.214Z,75.00
2022-08-29T05:49:58.876Z,75.40
2022-08-29T05:55:01.921Z,75.00
2022-08-29T06:00:08.900Z,73.60
2022-08-29T06:05:11.556Z,72.70
2022-08-29T06:10:14.119Z,71.50
2022-08-29T06:15:17.947Z,69.60
2022-08-29T06:20:20.803Z,68.30
2022-08-29T06:25:38.526Z,67.50
2022-08-29T06:30:43.715Z,66.70
2022-08-29T06:35:46.097Z,65.90
2022-08-29T06:40:48.458Z,64.90
2022-08-29T06:45:52.626Z,64.40
2022-08-29T06:50:55.373Z,64.30
2022-08-29T06:56:03.027Z,63.30
2022-08-29T07:01:13.250Z,62.40
2022-08-29T07:06:18.051Z,61.30
2022-08-29T07:11:20.686Z,60.80
2022-08-29T07:16:26.195Z,60.40
2022-08-29T07:21:29.605Z,60.10
2022-08-29T07:26:34.567Z,60.60
2022-08-29T07:31:38.774Z,61.10
2022-08-29T07:36:41.377Z,62.10
2022-08-29T07:41:45.128Z,63.10
2022-08-29T07:46:54.055Z,62.20
2022-08-29T07:51:56.693Z,61.50
2022-08-29T07:56:59.150Z,61.40
2022-08-29T08:02:03.429Z,61.40
2022-08-29T08:07:06.502Z,61.60
2022-08-29T08:12:16.872Z,61.70
2022-08-29T08:17:21.028Z,62.30
2022-08-29T08:22:23.475Z,62.90
2022-08-29T08:27:25.818Z,62.90
2022-08-29T08:32:32.261Z,63.30
2022-08-29T08:37:35.811Z,63.00
2022-08-29T08:42:42.235Z,62.90
2022-08-29T08:47:51.143Z,63.00
2022-08-29T08:52:57.813Z,62.90
2022-08-29T08:58:03.236Z,62.50
2022-08-29T09:03:17.897Z,62.80
2022-08-29T09:08:31.853Z,62.10
2022-08-29T09:13:46.335Z,62.10
2022-08-29T09:18:52.842Z,61.60
2022-08-29T09:23:58.992Z,61.60
2022-08-29T09:29:01.374Z,60.80
2022-08-29T09:34:11.713Z,59.70
2022-08-29T09:39:22.368Z,59.20
2022-08-29T09:44:28.375Z,59.10
2022-08-29T09:49:32.388Z,59.20
2022-08-29T09:54:34.918Z,59.50
2022-08-29T09:59:40.376Z,59.20
2022-08-29T10:04:51.405Z,59.70
2022-08-29T10:09:59.892Z,58.60
2022-08-29T10:15:09.899Z,59.00
2022-08-29T10:20:13.861Z,59.00
2022-08-29T10:25:23.073Z,59.30
2022-08-29T10:30:29.898Z,59.10
2022-08-29T10:35:40.537Z,58.80
2022-08-29T10:40:47.519Z,58.20
2022-08-29T10:46:09.979Z,57.70
2022-08-29T10:51:22.087Z,57.20
2022-08-29T10:56:31.579Z,57.00
2022-08-29T11:01:39.551Z,56.30
2022-08-29T11:06:48.865Z,56.30
2022-08-29T11:12:04.512Z,57.10
2022-08-29T11:17:10.316Z,56.10
2022-08-29T11:22:19.711Z,56.20
2022-08-29T11:27:29.508Z,55.40
2022-08-29T11:32:41.101Z,54.40
2022-08-29T11:38:25.273Z,53.80
2022-08-29T11:43:37.335Z,53.00
2022-08-29T11:48:42.822Z,53.50
2022-08-29T11:53:45.361Z,53.20
2022-08-29T11:58:50.508Z,53.00
2022-08-29T12:03:54.949Z,52.90
2022-08-29T12:09:07.147Z,52.90
2022-08-29T12:14:34.258Z,52.90
2022-08-29T12:19:49.649Z,52.60
2022-08-29T12:24:57.465Z,53.10
2022-08-29T12:30:02.229Z,54.20
2022-08-29T12:35:35.375Z,54.40
2022-08-29T12:41:04.285Z,53.20
2022-08-29T12:46:13.488Z,53.00
2022-08-29T12:51:32.015Z,52.50
2022-08-29T12:56:43.381Z,52.10
2022-08-29T13:01:50.981Z,52.70
2022-08-29T13:07:00.957Z,52.30
2022-08-29T13:12:10.794Z,51.90
2022-08-29T13:17:16.701Z,51.10
2022-08-29T13:22:19.471Z,50.70
2022-08-29T13:27:23.640Z,51.00
2022-08-29T13:32:27.836Z,50.40
2022-08-29T13:37:32.412Z,50.40
2022-08-29T13:42:34.967Z,50.00
2022-08-29T13:48:01.929Z,49.90
2022-08-29T13:53:04.340Z,49.60
2022-08-29T13:58:06.785Z,50.00
2022-08-29T14:03:10.761Z,50.30
2022-08-29T14:08:14.202Z,50.40
2022-08-29T14:13:16.742Z,50.60
2022-08-29T14:18:20.594Z,50.50
2022-08-29T14:23:23.377Z,50.10
2022-08-29T14:28:25.805Z,50.30
2022-08-29T14:33:29.663Z,50.00
2022-08-29T14:38:32.429Z,49.90
2022-08-29T14:43:39.251Z,49.90
2022-08-29T14:48:43.800Z,49.70
2022-08-29T14:53:54.170Z,49.70
2022-08-29T14:58:57.736Z,50.00
2022-08-29T15:04:01.742Z,49.90
2022-08-29T15:09:04.903Z,49.70
2022-08-29T15:14:07.221Z,49.80
2022-08-29T15:24:33.550Z,49.90
2022-08-29T15:29:37.512Z,50.00
2022-08-29T15:34:42.567Z,50.00
2022-08-29T15:39:45.022Z,49.80
2022-08-29T15:44:47.491Z,50.60
2022-08-29T15:49:55.503Z,50.60
2022-08-29T15:54:58.030Z,50.70
2022-08-29T16:00:00.642Z,50.90
2022-08-29T16:05:05.800Z,51.20
2022-08-29T16:10:10.694Z,50.90
2022-08-29T16:15:14.287Z,50.80
2022-08-29T16:20:18.259Z,51.00
2022-08-29T16:25:20.959Z,50.60
2022-08-29T16:30:24.423Z,50.70
2022-08-29T16:35:28.419Z,50.90
2022-08-29T16:40:31.912Z,51.20
2022-08-29T16:45:34.628Z,51.40
2022-08-29T16:50:38.620Z,51.60
2022-08-29T16:55:41.071Z,51.60
2022-08-29T17:00:44.011Z,51.70
2022-08-29T17:05:47.915Z,52.00
2022-08-29T17:10:50.502Z,52.10
2022-08-29T17:15:53.102Z,52.30
2022-08-29T17:20:57.011Z,52.40
2022-08-29T17:26:00.839Z,52.70
2022-08-29T17:31:03.977Z,52.90
2022-08-29T17:36:10.459Z,53.00
2022-08-29T17:41:15.196Z,53.60
2022-08-29T17:46:20.213Z,53.60
2022-08-29T17:51:24.235Z,53.90
2022-08-29T17:56:38.294Z,54.40
2022-08-29T18:01:47.862Z,54.70
2022-08-29T18:06:51.820Z,54.90
2022-08-29T18:11:55.709Z,55.30
2022-08-29T18:16:58.233Z,56.10
2022-08-29T18:22:09.220Z,55.60
2022-08-29T18:27:11.702Z,56.20
2022-08-29T18:32:15.037Z,56.40
2022-08-29T18:37:18.935Z,56.80
2022-08-29T18:42:39.405Z,57.10
2022-08-29T18:47:43.404Z,57.30
2022-08-29T18:52:47.366Z,57.50
2022-08-29T18:57:51.852Z,57.90
2022-08-29T19:02:56.164Z,57.90
2022-08-29T19:08:03.614Z,58.30
2022-08-29T19:13:06.613Z,58.80
2022-08-29T19:18:10.157Z,58.70
2022-08-29T19:23:14.605Z,59.10
2022-08-29T19:28:18.715Z,59.50
2022-08-29T19:33:21.216Z,59.70
2022-08-29T19:38:25.060Z,59.80
2022-08-29T19:43:30.684Z,60.30
2022-08-29T19:48:33.206Z,60.70
2022-08-29T19:53:38.071Z,60.80
2022-08-29T19:58:40.513Z,61.60
2022-08-29T20:03:43.069Z,61.70
2022-08-29T20:08:49.688Z,62.10
2022-08-29T20:13:54.886Z,62.70
2022-08-29T20:18:58.037Z,62.50
2022-08-29T20:24:02.127Z,63.60
2022-08-29T20:29:09.266Z,63.00
2022-08-29T20:34:11.988Z,63.10
2022-08-29T20:39:18.529Z,63.20
2022-08-29T20:44:21.713Z,64.10
2022-08-29T20:49:26.283Z,63.80
2022-08-29T20:54:32.304Z,65.00
2022-08-29T20:59:35.910Z,64.30
2022-08-29T21:04:42.244Z,64.20
2022-08-29T21:09:47.424Z,64.50
2022-08-29T21:14:51.797Z,65.00
2022-08-29T21:19:54.596Z,65.10
2022-08-29T21:24:58.587Z,64.90
2022-08-29T21:30:00.991Z,64.90
2022-08-29T21:35:03.695Z,64.90
2022-08-29T21:40:09.442Z,65.10
2022-08-29T21:45:12.422Z,65.50
2022-08-29T21:50:14.810Z,65.30
2022-08-29T21:55:20.532Z,65.40
2022-08-29T22:00:26.723Z,65.80
2022-08-29T22:11:37.665Z,67.10
2022-08-29T22:16:40.553Z,66.10
2022-08-29T22:21:46.949Z,66.10
2022-08-29T22:26:50.698Z,66.70
2022-08-29T22:31:53.160Z,66.70
2022-08-29T22:36:55.557Z,66.80
2022-08-29T22:41:59.416Z,66.90
2022-08-29T22:47:02.304Z,67.40
2022-08-29T22:52:04.840Z,67.50
2022-08-29T22:57:10.938Z,67.60
2022-08-29T23:02:13.379Z,68.00
2022-08-29T23:07:16.338Z,67.60
2022-08-29T23:12:21.148Z,68.60
2022-08-29T23:17:23.442Z,69.40
2022-08-29T23:22:25.883Z,69.20
2022-08-29T23:27:32.349Z,68.70
2022-08-29T23:32:35.341Z,68.50
2022-08-29T23:37:37.753Z,68.40
2022-08-29T23:42:41.522Z,68.40
2022-08-29T23:47:44.048Z,68.60
2022-08-29T23:52:46.883Z,68.50
2022-08-29T23:57:50.863Z,68.50
